createdAt,value
2023-03-29T00:02:04.127Z,100359.56
2023-03-29T00:04:31.255Z,100349.00
2023-03-29T00:07:04.440Z,100348.91
2023-03-29T00:09:32.907Z,100347.63
2023-03-29T00:12:00.647Z,100351.47
2023-03-29T00:14:28.813Z,100350.91
2023-03-29T00:16:55.590Z,100352.50
2023-03-29T00:19:22.284Z,100336.69
2023-03-29T00:21:48.982Z,100334.03
2023-03-29T00:24:15.736Z,100330.16
2023-03-29T00:26:42.492Z,100322.50
2023-03-29T00:29:09.275Z,100321.69
2023-03-29T00:31:36.055Z,100324.41
2023-03-29T00:34:03.202Z,100319.41
2023-03-29T00:36:29.914Z,100316.59
2023-03-29T00:38:56.614Z,100309.41
2023-03-29T00:41:24.324Z,100307.72
2023-03-29T00:44:02.355Z,100308.44
2023-03-29T00:46:30.489Z,100303.69
2023-03-29T00:49:04.481Z,100305.59
2023-03-29T00:51:34.267Z,100297.66
2023-03-29T00:54:02.322Z,100297.25
2023-03-29T00:56:37.478Z,100305.16
2023-03-29T00:59:07.141Z,100304.44
2023-03-29T01:01:45.172Z,100302.75
2023-03-29T01:04:18.638Z,100305.38
2023-03-29T01:06:58.369Z,100305.50
2023-03-29T01:09:27.105Z,100293.34
2023-03-29T01:11:56.773Z,100292.31
2023-03-29T01:14:58.591Z,100279.28
2023-03-29T01:17:25.731Z,100271.19
2023-03-29T01:19:58.300Z,100271.91
2023-03-29T01:22:45.924Z,100269.69
2023-03-29T01:25:41.831Z,100263.66
2023-03-29T01:28:10.834Z,100256.56
2023-03-29T01:30:42.459Z,100251.13
2023-03-29T01:33:21.338Z,100245.19
2023-03-29T01:35:53.306Z,100243.00
2023-03-29T01:38:30.493Z,100237.81
2023-03-29T01:40:57.185Z,100230.63
2023-03-29T01:43:26.469Z,100231.38
2023-03-29T01:46:00.095Z,100234.94
2023-03-29T01:48:29.528Z,100231.78
2023-03-29T01:51:11.312Z,100225.66
2023-03-29T01:53:39.539Z,100233.47
2023-03-29T01:56:12.362Z,100223.31
2023-03-29T01:58:43.286Z,100227.53
2023-03-29T02:01:11.169Z,100238.97
2023-03-29T02:03:42.138Z,100237.25
2023-03-29T02:06:13.275Z,100233.88
2023-03-29T02:08:41.337Z,100227.75
2023-03-29T02:11:08.550Z,100231.34
2023-03-29T02:13:35.815Z,100231.78
2023-03-29T02:16:12.040Z,100224.28
2023-03-29T02:18:40.356Z,100221.44
2023-03-29T02:21:16.318Z,100222.25
2023-03-29T02:23:46.643Z,100211.06
2023-03-29T02:26:14.464Z,100213.41
2023-03-29T02:28:42.126Z,100216.81
2023-03-29T02:31:21.197Z,100206.63
2023-03-29T02:34:32.822Z,100201.38
2023-03-29T02:37:10.593Z,100196.09
2023-03-29T02:39:38.308Z,100196.75
2023-03-29T02:42:06.147Z,100196.75
2023-03-29T02:44:36.499Z,100191.66
2023-03-29T02:47:07.917Z,100189.22
2023-03-29T02:49:34.694Z,100187.31
2023-03-29T02:52:10.538Z,100181.59
2023-03-29T02:54:42.939Z,100182.47
2023-03-29T02:57:10.454Z,100176.03
2023-03-29T02:59:38.628Z,100175.81
2023-03-29T03:02:05.518Z,100170.44
2023-03-29T03:04:35.018Z,100163.50
2023-03-29T03:07:02.620Z,100157.25
2023-03-29T03:09:29.605Z,100155.56
2023-03-29T03:11:56.791Z,100148.72
2023-03-29T03:14:25.241Z,100140.13
2023-03-29T03:16:52.745Z,100144.56
2023-03-29T03:19:19.860Z,100143.63
2023-03-29T03:21:47.060Z,100137.50
2023-03-29T03:24:15.537Z,100145.63
2023-03-29T03:26:42.291Z,100151.00
2023-03-29T03:29:09.710Z,100146.75
2023-03-29T03:32:02.114Z,100145.09
2023-03-29T03:34:55.221Z,100144.13
2023-03-29T03:37:24.863Z,100142.22
2023-03-29T03:39:51.967Z,100150.28
2023-03-29T03:42:18.766Z,100149.31
2023-03-29T03:44:46.279Z,100142.44
2023-03-29T03:47:39.524Z,100139.81
2023-03-29T03:50:41.890Z,100134.44
2023-03-29T03:53:09.275Z,100134.44
2023-03-29T03:55:56.041Z,100136.53
2023-03-29T03:58:27.064Z,100126.06
2023-03-29T04:00:54.855Z,100126.91
2023-03-29T04:03:35.940Z,100131.25
2023-03-29T04:06:04.145Z,100135.03
2023-03-29T04:08:48.116Z,100127.66
2023-03-29T04:11:37.533Z,100133.03
2023-03-29T04:14:05.489Z,100138.22
2023-03-29T04:16:52.863Z,100139.28
2023-03-29T04:19:39.856Z,100148.16
2023-03-29T04:22:06.606Z,100140.22
2023-03-29T04:24:34.935Z,100151.50
2023-03-29T04:27:24.468Z,100152.47
2023-03-29T04:29:51.637Z,100163.97
2023-03-29T04:32:30.477Z,100159.63
2023-03-29T04:35:04.904Z,100150.25
2023-03-29T04:37:32.466Z,100150.25
2023-03-29T04:40:04.413Z,100152.66
2023-03-29T04:42:47.159Z,100147.47
2023-03-29T04:45:14.603Z,100154.66
2023-03-29T04:48:01.956Z,100151.91
2023-03-29T04:50:29.647Z,100152.34
2023-03-29T04:52:57.045Z,100151.69
2023-03-29T04:55:24.151Z,100149.88
2023-03-29T04:58:12.953Z,100146.94
2023-03-29T05:00:42.940Z,100143.25
2023-03-29T05:03:13.512Z,100142.97
2023-03-29T05:06:08.701Z,100143.47
2023-03-29T05:08:39.135Z,100140.41
2023-03-29T05:11:24.420Z,100145.59
2023-03-29T05:13:51.221Z,100145.50
2023-03-29T05:16:18.594Z,100138.72
2023-03-29T05:18:45.388Z,100141.38
2023-03-29T05:21:12.189Z,100141.38
2023-03-29T05:23:42.193Z,100147.94
2023-03-29T05:26:15.405Z,100143.50
2023-03-29T05:28:47.045Z,100138.97
2023-03-29T05:31:16.673Z,100134.75
2023-03-29T05:33:45.122Z,100145.09
2023-03-29T05:36:14.156Z,100136.00
2023-03-29T05:38:46.802Z,100141.59
2023-03-29T05:41:15.918Z,100133.16
2023-03-29T05:43:45.763Z,100126.81
2023-03-29T05:46:13.374Z,100130.09
2023-03-29T05:48:47.392Z,100132.09
2023-03-29T05:51:15.074Z,100134.31
2023-03-29T05:53:42.127Z,100137.50
2023-03-29T05:56:10.766Z,100143.72
2023-03-29T05:58:39.242Z,100145.09
2023-03-29T06:01:11.789Z,100141.09
2023-03-29T06:03:57.340Z,100140.66
2023-03-29T06:06:29.853Z,100143.22
2023-03-29T06:08:59.041Z,100148.19
2023-03-29T06:11:39.229Z,100144.50
2023-03-29T06:14:27.207Z,100143.75
2023-03-29T06:17:04.353Z,100141.00
2023-03-29T06:19:31.753Z,100150.81
2023-03-29T06:21:58.489Z,100150.63
2023-03-29T06:24:28.414Z,100146.81
2023-03-29T06:27:03.743Z,100143.53
2023-03-29T06:29:31.109Z,100138.47
2023-03-29T06:31:58.129Z,100150.31
2023-03-29T06:34:54.424Z,100153.06
2023-03-29T06:37:33.856Z,100156.53
2023-03-29T06:40:21.180Z,100153.88
2023-03-29T06:42:48.459Z,100153.59
2023-03-29T06:45:36.251Z,100149.88
2023-03-29T06:48:12.410Z,100151.25
2023-03-29T06:50:47.629Z,100154.56
2023-03-29T06:53:15.802Z,100161.28
2023-03-29T06:55:45.679Z,100158.25
2023-03-29T06:58:26.273Z,100161.72
2023-03-29T07:00:53.933Z,100163.63
2023-03-29T07:03:29.990Z,100167.00
2023-03-29T07:06:03.881Z,100160.88
2023-03-29T07:08:32.762Z,100165.19
2023-03-29T07:11:03.735Z,100168.28
2023-03-29T07:13:50.964Z,100173.34
2023-03-29T07:16:22.253Z,100167.09
2023-03-29T07:18:54.307Z,100166.16
2023-03-29T07:21:47.395Z,100163.50
2023-03-29T07:24:14.903Z,100168.69
2023-03-29T07:26:52.258Z,100173.78
2023-03-29T07:29:23.359Z,100179.44
2023-03-29T07:31:50.463Z,100185.38
2023-03-29T07:34:52.688Z,100183.59
2023-03-29T07:37:34.132Z,100183.34
2023-03-29T07:40:03.414Z,100194.53
2023-03-29T07:42:42.267Z,100183.13
2023-03-29T07:45:13.711Z,100189.16
2023-03-29T07:47:56.030Z,100191.59
2023-03-29T07:50:23.266Z,100189.69
2023-03-29T07:52:53.549Z,100183.44
2023-03-29T07:55:20.528Z,100188.53
2023-03-29T07:57:57.843Z,100195.28
2023-03-29T08:00:25.060Z,100189.66
2023-03-29T08:03:14.829Z,100187.53
2023-03-29T08:05:43.109Z,100178.44
2023-03-29T08:08:11.747Z,100182.66
2023-03-29T08:10:54.857Z,100183.41
2023-03-29T08:13:30.761Z,100178.22
2023-03-29T08:16:16.215Z,100169.22
2023-03-29T08:18:51.029Z,100171.78
2023-03-29T08:21:19.487Z,100178.50
2023-03-29T08:23:49.146Z,100178.41
2023-03-29T08:26:20.592Z,100170.25
2023-03-29T08:28:49.284Z,100177.13
2023-03-29T08:31:18.028Z,100171.81
2023-03-29T08:33:45.553Z,100178.59
2023-03-29T08:36:45.023Z,100187.22
2023-03-29T08:39:21.218Z,100185.22
2023-03-29T08:42:02.398Z,100188.50
2023-03-29T08:44:57.458Z,100183.41
2023-03-29T08:47:27.119Z,100182.03
2023-03-29T08:49:55.269Z,100180.13
2023-03-29T08:52:31.467Z,100175.53
2023-03-29T08:55:03.043Z,100179.75
2023-03-29T08:58:12.670Z,100175.44
2023-03-29T09:00:44.255Z,100177.97
2023-03-29T09:03:22.140Z,100174.59
2023-03-29T09:05:54.690Z,100170.03
2023-03-29T09:08:25.564Z,100163.69
2023-03-29T09:11:00.230Z,100168.00
2023-03-29T09:13:51.119Z,100171.81
2023-03-29T09:16:43.293Z,100174.38
2023-03-29T09:19:26.095Z,100163.56
2023-03-29T09:22:09.439Z,100158.72
2023-03-29T09:24:57.897Z,100168.59
2023-03-29T09:27:34.912Z,100177.19
2023-03-29T09:30:27.509Z,100173.56
2023-03-29T09:33:12.841Z,100169.03
2023-03-29T09:35:56.355Z,100176.66
2023-03-29T09:38:23.484Z,100171.13
2023-03-29T09:40:53.921Z,100174.28
2023-03-29T09:43:31.332Z,100171.63
2023-03-29T09:46:06.546Z,100175.59
2023-03-29T09:48:37.790Z,100165.66
2023-03-29T09:51:07.611Z,100169.13
2023-03-29T09:53:36.699Z,100161.94
2023-03-29T09:56:16.860Z,100156.41
2023-03-29T09:58:49.730Z,100159.78
2023-03-29T10:01:19.023Z,100152.34
2023-03-29T10:03:52.470Z,100157.88
2023-03-29T10:06:24.333Z,100165.59
2023-03-29T10:08:59.321Z,100160.91
2023-03-29T10:11:37.361Z,100160.53
2023-03-29T10:14:16.785Z,100161.41
2023-03-29T10:16:46.242Z,100148.78
2023-03-29T10:19:19.223Z,100148.41
2023-03-29T10:21:49.084Z,100144.34
2023-03-29T10:24:20.569Z,100137.81
2023-03-29T10:26:47.946Z,100142.53
2023-03-29T10:29:14.804Z,100135.06
2023-03-29T10:31:42.470Z,100128.44
2023-03-29T10:34:13.040Z,100134.47
2023-03-29T10:36:44.903Z,100137.00
2023-03-29T10:39:15.561Z,100135.66
2023-03-29T10:41:42.676Z,100126.28
2023-03-29T10:44:32.780Z,100130.84
2023-03-29T10:47:17.584Z,100125.19
2023-03-29T10:50:07.708Z,100114.69
2023-03-29T10:52:34.588Z,100108.88
2023-03-29T10:55:01.673Z,100113.00
2023-03-29T10:57:47.298Z,100102.38
2023-03-29T11:00:21.797Z,100109.47
2023-03-29T11:03:15.193Z,100106.69
2023-03-29T11:05:54.336Z,100094.75
2023-03-29T11:08:49.169Z,100092.03
2023-03-29T11:11:56.183Z,100100.09
2023-03-29T11:14:31.511Z,100088.13
2023-03-29T11:17:19.681Z,100093.16
2023-03-29T11:20:17.491Z,100085.09
2023-03-29T11:22:53.280Z,100080.34
2023-03-29T11:25:29.894Z,100072.28
2023-03-29T11:28:21.894Z,100081.94
2023-03-29T11:30:57.212Z,100087.97
2023-03-29T11:33:34.484Z,100070.94
2023-03-29T11:36:16.844Z,100079.97
2023-03-29T11:39:11.396Z,100067.41
2023-03-29T11:41:40.611Z,100063.84
2023-03-29T11:44:22.526Z,100053.94
2023-03-29T11:46:59.849Z,100054.25
2023-03-29T11:49:44.489Z,100058.91
2023-03-29T11:52:18.099Z,100055.47
2023-03-29T11:55:04.922Z,100057.16
2023-03-29T11:58:26.870Z,100061.34
2023-03-29T12:01:11.654Z,100048.25
2023-03-29T12:03:50.580Z,100045.34
2023-03-29T12:06:33.352Z,100054.44
2023-03-29T12:09:26.255Z,100039.75
2023-03-29T12:12:10.799Z,100042.88
2023-03-29T12:14:58.830Z,100040.47
2023-03-29T12:17:33.345Z,100042.03
2023-03-29T12:21:03.963Z,100039.66
2023-03-29T12:23:38.268Z,100027.66
2023-03-29T12:26:37.287Z,100018.72
2023-03-29T12:29:37.747Z,100018.44
2023-03-29T12:32:24.749Z,100020.25
2023-03-29T12:35:31.006Z,100008.78
2023-03-29T12:38:19.924Z,99997.47
2023-03-29T12:41:25.466Z,99998.31
2023-03-29T12:44:10.754Z,99999.19
2023-03-29T12:47:08.795Z,99999.88
2023-03-29T12:50:26.442Z,99986.72
2023-03-29T12:53:06.535Z,99993.06
2023-03-29T12:55:49.622Z,99995.03
2023-03-29T12:58:56.647Z,99998.22
2023-03-29T13:01:37.311Z,99990.28
2023-03-29T13:04:25.327Z,99988.31
2023-03-29T13:07:06.061Z,99987.03
2023-03-29T13:09:50.747Z,99978.66
2023-03-29T13:12:57.686Z,99975.69
2023-03-29T13:15:36.563Z,99972.06
2023-03-29T13:18:16.566Z,99975.03
2023-03-29T13:21:21.597Z,99971.91
2023-03-29T13:24:05.362Z,99952.34
2023-03-29T13:26:59.919Z,99952.03
2023-03-29T13:29:51.712Z,99960.56
2023-03-29T13:32:27.054Z,99969.84
2023-03-29T13:35:14.488Z,99958.50
2023-03-29T13:37:53.190Z,99959.91
2023-03-29T13:40:32.823Z,99961.69
2023-03-29T13:43:55.206Z,99960.03
2023-03-29T13:47:01.324Z,99968.84
2023-03-29T13:49:32.419Z,99961.84
2023-03-29T13:52:30.505Z,99953.88
2023-03-29T13:55:06.164Z,99943.81
2023-03-29T13:57:47.605Z,99942.28
2023-03-29T14:00:35.866Z,99942.13
2023-03-29T14:03:13.055Z,99935.41
2023-03-29T14:05:48.022Z,99934.00
2023-03-29T14:08:26.792Z,99933.44
2023-03-29T14:10:54.558Z,99939.59
2023-03-29T14:13:27.581Z,99932.31
2023-03-29T14:16:04.458Z,99938.78
2023-03-29T14:18:40.554Z,99934.81
2023-03-29T14:21:22.207Z,99929.66
2023-03-29T14:24:24.221Z,99935.53
2023-03-29T14:27:12.686Z,99920.56
2023-03-29T14:29:45.429Z,99921.94
2023-03-29T14:32:19.056Z,99916.19
2023-03-29T14:35:03.067Z,99926.25
2023-03-29T14:37:43.694Z,99912.25
2023-03-29T14:40:27.693Z,99911.41
2023-03-29T14:43:01.260Z,99920.91
2023-03-29T14:45:28.151Z,99913.63
2023-03-29T14:48:02.086Z,99905.22
2023-03-29T14:50:30.973Z,99906.47
2023-03-29T14:53:03.995Z,99902.81
2023-03-29T14:55:32.487Z,99901.25
2023-03-29T14:58:04.424Z,99907.81
2023-03-29T15:00:50.903Z,99894.66
2023-03-29T15:03:28.476Z,99889.72
2023-03-29T15:06:02.859Z,99891.41
2023-03-29T15:08:38.412Z,99881.03
2023-03-29T15:11:18.356Z,99877.97
2023-03-29T15:13:47.265Z,99891.69
2023-03-29T15:16:42.719Z,99879.56
2023-03-29T15:19:22.272Z,99883.47
2023-03-29T15:21:51.152Z,99875.31
2023-03-29T15:25:16.373Z,99875.78
2023-03-29T15:28:09.654Z,99866.78
2023-03-29T15:31:37.050Z,99869.03
2023-03-29T15:34:54.137Z,99866.25
2023-03-29T15:38:00.114Z,99862.19
2023-03-29T15:40:54.659Z,99856.97
2023-03-29T15:43:27.573Z,99852.78
2023-03-29T15:45:57.913Z,99855.59
2023-03-29T15:48:44.321Z,99855.44
2023-03-29T15:51:26.803Z,99855.72
2023-03-29T15:53:56.852Z,99848.75
2023-03-29T15:56:47.980Z,99855.72
2023-03-29T16:00:08.797Z,99862.06
2023-03-29T16:03:09.644Z,99868.06
2023-03-29T16:05:44.179Z,99868.22
2023-03-29T16:08:24.251Z,99870.03
2023-03-29T16:11:02.085Z,99865.69
2023-03-29T16:13:31.378Z,99869.03
2023-03-29T16:17:06.667Z,99864.44
2023-03-29T16:19:45.555Z,99862.72
2023-03-29T16:22:27.587Z,99863.59
2023-03-29T16:25:40.653Z,99864.13
2023-03-29T16:28:57.511Z,99866.66
2023-03-29T16:31:47.661Z,99858.38
2023-03-29T16:34:27.203Z,99858.50
2023-03-29T16:36:56.273Z,99856.09
2023-03-29T16:39:26.958Z,99860.41
2023-03-29T16:41:54.201Z,99843.47
2023-03-29T16:44:25.741Z,99858.16
2023-03-29T16:46:58.181Z,99850.16
2023-03-29T16:49:30.045Z,99845.16
2023-03-29T16:52:02.606Z,99843.00
2023-03-29T16:54:34.167Z,99844.16
2023-03-29T16:57:07.436Z,99848.72
2023-03-29T16:59:38.256Z,99836.41
2023-03-29T17:02:10.559Z,99836.28
2023-03-29T17:04:38.589Z,99826.28
2023-03-29T17:07:05.597Z,99820.81
2023-03-29T17:09:33.391Z,99819.81
2023-03-29T17:12:03.484Z,99822.47
2023-03-29T17:14:38.895Z,99821.81
2023-03-29T17:17:07.296Z,99827.97
2023-03-29T17:19:36.517Z,99843.97
2023-03-29T17:22:03.409Z,99843.28
2023-03-29T17:24:30.651Z,99833.06
2023-03-29T17:34:30.215Z,99825.09
2023-03-29T17:38:12.512Z,99818.13
2023-03-29T17:41:17.563Z,99816.44
2023-03-29T17:44:23.564Z,99808.16
2023-03-29T17:47:55.176Z,99819.25
2023-03-29T17:54:36.980Z,99807.91
2023-03-29T18:00:01.835Z,99799.09
2023-03-29T18:06:18.093Z,99800.34
2023-03-29T18:12:20.172Z,99801.59
2023-03-29T18:15:29.468Z,99805.25
2023-03-29T18:18:02.212Z,99808.72
2023-03-29T18:20:29.182Z,99806.75
2023-03-29T18:22:59.442Z,99802.44
2023-03-29T18:25:26.259Z,99799.78
2023-03-29T18:27:53.054Z,99805.81
2023-03-29T18:30:19.802Z,99801.31
2023-03-29T18:32:46.620Z,99794.97
2023-03-29T18:35:13.321Z,99800.47
2023-03-29T18:37:40.009Z,99816.16
2023-03-29T18:40:10.615Z,99808.28
2023-03-29T18:42:37.572Z,99806.94
2023-03-29T18:45:04.932Z,99811.78
2023-03-29T18:47:32.200Z,99808.47
2023-03-29T18:49:59.041Z,99808.47
2023-03-29T18:52:25.753Z,99806.94
2023-03-29T18:54:52.437Z,99819.25
2023-03-29T18:57:19.299Z,99805.94
2023-03-29T18:59:46.226Z,99808.28
2023-03-29T19:02:13.035Z,99804.94
2023-03-29T19:04:39.827Z,99801.44
2023-03-29T19:07:06.750Z,99812.94
2023-03-29T19:09:33.778Z,99810.72
2023-03-29T19:12:01.108Z,99810.72
2023-03-29T19:14:29.183Z,99811.56
2023-03-29T19:16:55.880Z,99804.72
2023-03-29T19:19:24.770Z,99798.56
2023-03-29T19:21:52.769Z,99795.31
2023-03-29T19:24:19.703Z,99797.03
2023-03-29T19:26:47.944Z,99799.69
2023-03-29T19:29:14.826Z,99810.16
2023-03-29T19:31:41.916Z,99804.31
2023-03-29T19:34:10.876Z,99805.28
2023-03-29T19:36:38.089Z,99795.75
2023-03-29T19:39:05.825Z,99796.91
2023-03-29T19:41:32.722Z,99794.94
2023-03-29T19:43:59.611Z,99789.47
2023-03-29T19:46:28.027Z,99779.13
2023-03-29T19:49:38.419Z,99781.22
2023-03-29T19:52:39.055Z,99772.81
2023-03-29T19:55:11.351Z,99768.16
2023-03-29T19:57:48.400Z,99752.94
2023-03-29T20:00:24.418Z,99762.59
2023-03-29T20:03:23.189Z,99752.81
2023-03-29T20:05:50.922Z,99749.19
2023-03-29T20:08:17.740Z,99741.50
2023-03-29T20:10:44.572Z,99736.19
2023-03-29T20:13:11.558Z,99730.69
2023-03-29T20:15:38.466Z,99739.50
2023-03-29T20:18:05.948Z,99730.16
2023-03-29T20:20:35.726Z,99710.41
2023-03-29T20:23:05.263Z,99705.81
2023-03-29T20:25:36.124Z,99704.97
2023-03-29T20:28:04.697Z,99698.28
2023-03-29T20:30:31.529Z,99706.38
2023-03-29T20:32:58.367Z,99699.72
2023-03-29T20:35:25.365Z,99701.94
2023-03-29T20:37:52.236Z,99685.41
2023-03-29T20:40:20.874Z,99681.53
2023-03-29T20:42:56.725Z,99683.34
2023-03-29T20:45:23.560Z,99682.47
2023-03-29T20:47:57.437Z,99681.78
2023-03-29T20:50:28.180Z,99678.44
2023-03-29T20:52:57.289Z,99678.97
2023-03-29T20:55:33.316Z,99677.03
2023-03-29T20:58:05.366Z,99678.44
2023-03-29T21:00:35.734Z,99676.91
2023-03-29T21:03:03.851Z,99672.59
2023-03-29T21:05:32.286Z,99671.59
2023-03-29T21:07:59.315Z,99664.72
2023-03-29T21:10:32.533Z,99672.19
2023-03-29T21:13:09.404Z,99661.81
2023-03-29T21:15:43.846Z,99667.84
2023-03-29T21:18:12.969Z,99658.25
2023-03-29T21:20:40.175Z,99657.94
2023-03-29T21:23:07.121Z,99648.41
2023-03-29T21:25:34.010Z,99655.28
2023-03-29T21:28:02.819Z,99640.13
2023-03-29T21:30:34.505Z,99647.00
2023-03-29T21:33:01.601Z,99644.50
2023-03-29T21:35:33.949Z,99636.66
2023-03-29T21:38:01.219Z,99632.91
2023-03-29T21:40:30.180Z,99636.13
2023-03-29T21:42:56.967Z,99638.91
2023-03-29T21:45:27.029Z,99643.81
2023-03-29T21:47:53.960Z,99637.38
2023-03-29T21:50:21.740Z,99638.91
2023-03-29T21:52:48.888Z,99628.88
2023-03-29T21:55:15.708Z,99622.72
2023-03-29T21:57:42.602Z,99619.06
2023-03-29T22:00:11.300Z,99626.75
2023-03-29T22:02:42.544Z,99620.72
2023-03-29T22:05:16.714Z,99624.38
2023-03-29T22:07:43.716Z,99624.53
2023-03-29T22:10:13.057Z,99626.97
2023-03-29T22:12:42.274Z,99614.09
2023-03-29T22:15:16.507Z,99628.38
2023-03-29T22:17:48.167Z,99621.66
2023-03-29T22:20:18.525Z,99625.25
2023-03-29T22:22:49.743Z,99626.34
2023-03-29T22:25:17.901Z,99632.97
2023-03-29T22:27:49.753Z,99619.41
2023-03-29T22:30:22.552Z,99630.47
2023-03-29T22:32:49.469Z,99631.75
2023-03-29T22:35:19.341Z,99619.31
2023-03-29T22:37:46.220Z,99619.56
2023-03-29T22:40:13.532Z,99623.50
2023-03-29T22:42:43.265Z,99621.09
2023-03-29T22:45:19.545Z,99630.78
2023-03-29T22:47:51.176Z,99622.78
2023-03-29T22:50:33.629Z,99610.78
2023-03-29T22:53:00.605Z,99618.91
2023-03-29T22:55:30.590Z,99622.69
2023-03-29T22:58:00.802Z,99616.69
2023-03-29T23:00:31.228Z,99612.50
2023-03-29T23:03:06.574Z,99613.63
2023-03-29T23:05:33.871Z,99607.31
2023-03-29T23:08:01.395Z,99617.38
2023-03-29T23:10:38.400Z,99613.63
2023-03-29T23:13:09.049Z,99613.22
2023-03-29T23:15:37.454Z,99618.75
2023-03-29T23:18:13.400Z,99615.94
2023-03-29T23:20:40.708Z,99616.09
2023-03-29T23:23:08.484Z,99613.00
2023-03-29T23:25:39.895Z,99614.00
2023-03-29T23:28:07.351Z,99614.81
2023-03-29T23:30:40.234Z,99614.00
2023-03-29T23:33:07.664Z,99623.63
2023-03-29T23:35:35.959Z,99620.97
2023-03-29T23:38:05.564Z,99619.44
2023-03-29T23:40:33.240Z,99633.44
2023-03-29T23:43:00.271Z,99625.47
2023-03-29T23:45:30.139Z,99619.84
2023-03-29T23:47:58.640Z,99621.09
2023-03-29T23:50:28.609Z,99626.00
2023-03-29T23:52:55.665Z,99614.66
2023-03-29T23:55:27.938Z,99632.59
2023-03-29T23:57:57.728Z,99648.25
